• Join FlightAware (Why Join?)
  • Login
  • US Flag 
11:56AM EST


 

Airport Tracker/Info


-or-


 

Live Flight TrackerFlight Track Log ✈ BAW228 ✈ 24-May-2013 ✈ KBWI - EGLL / LHR

Flight Track Log - Related Links

Times and Time Zones

All times are in EDT time to prevent confusion due to time zone crossing. See the BAW228 flight status page for this flight to view local times or setup timezone preferences in your user account.

Time Position Orientation Groundspeed Altitude Reporting Facility
EDT Latitude Longitude Course Direction KTS MPH feet Rate Location/Type
10:13PM 39.1240 -76.7490 136° Southeast 248 285 4,000  Level FlightAware
10:13PM 39.1150 -76.7250 116° Southeast 239 275 4,600 1,800 Climbing FlightAware
10:13PM 39.1130 -76.7050 97° East 246 283 4,900 1,680 Climbing FlightAware
10:14PM 39.1150 -76.6620 87° East 265 305 5,900 1,920 Climbing FlightAware
10:14PM 39.1190 -76.6200 83° East 265 305 6,700 1,740 Climbing FlightAware
10:14PM 39.1230 -76.5720 84° East 263 303 7,500 1,800 Climbing FlightAware
10:15PM 39.1260 -76.5380 84° East 272 313 8,400 1,740 Climbing FlightAware
10:15PM 39.1310 -76.4840 83° East 284 327 9,100 1,920 Climbing FlightAware
10:16PM 39.1371 -76.4042 84° East 301 346 10,800 1,740 Climbing FlightAware ADS-B
10:17PM 39.1418 -76.3434 84° East 339 390 11,400 1,200 Climbing FlightAware ADS-B
10:17PM 39.1466 -76.2809 84° East 360 414 12,100 1,620 Climbing FlightAware ADS-B
10:18PM 39.1520 -76.2138 84° East 370 426 13,100 1,920 Climbing FlightAware ADS-B
10:18PM 39.1601 -76.1455 81° East 378 435 14,100 1,860 Climbing FlightAware ADS-B
10:19PM 39.1683 -76.0755 81° East 386 444 15,000 1,980 Climbing FlightAware ADS-B
10:19PM 39.1763 -76.0068 81° East 389 448 16,100 2,160 Climbing FlightAware ADS-B
10:19PM 39.1821 -75.9728 78° East 389 448 16,700 2,400 Climbing FlightAware ADS-B
10:20PM 39.1880 -75.9533 69° East 389 448 17,100 2,160 Climbing FlightAware ADS-B
10:20PM 39.1962 -75.9327 63° Northeast 389 448 17,400 1,980 Climbing FlightAware ADS-B
10:20PM 39.2011 -75.9230 57° Northeast 388 447 17,600 2,460 Climbing FlightAware ADS-B
10:20PM 39.2093 -75.9082 54° Northeast 389 448 17,900 2,040 Climbing FlightAware ADS-B
10:21PM 39.2461 -75.8562 48° Northeast 392 451 18,900 1,920 Climbing FlightAware ADS-B
10:21PM 39.2838 -75.8041 47° Northeast 399 459 19,900 1,860 Climbing FlightAware ADS-B
10:22PM 39.3264 -75.7443 47° Northeast 406 467 20,900 1,560 Climbing FlightAware ADS-B
10:22PM 39.3655 -75.6901 47° Northeast 417 480 21,600 1,320 Climbing FlightAware ADS-B
10:22PM 39.3929 -75.6514 47° Northeast 425 489 22,000 1,260 Climbing FlightAware ADS-B
10:23PM 39.4048 -75.6375 42° Northeast 429 494 22,200 1,200 Climbing FlightAware ADS-B
10:23PM 39.4534 -75.5889 38° Northeast 441 507 22,800 1,020 Climbing FlightAware ADS-B
10:24PM 39.5068 -75.5336 39° Northeast 458 527 23,300 840 Climbing FlightAware ADS-B
10:24PM 39.5596 -75.4800 38° Northeast 472 543 23,700 1,080 Climbing FlightAware ADS-B
10:25PM 39.6130 -75.4251 38° Northeast 485 558 24,400 1,260 Climbing FlightAware ADS-B
10:25PM 39.6435 -75.3967 36° Northeast 491 565 24,700 1,740 Climbing FlightAware ADS-B
10:25PM 39.7000 -75.3423 37° Northeast 493 567 25,800 2,340 Climbing FlightAware ADS-B
10:26PM 39.7169 -75.3235 41° Northeast 484 557 26,300 2,040 Climbing FlightAware ADS-B
10:26PM 39.7434 -75.2889 45° Northeast 485 558 26,700 1,080 Climbing FlightAware ADS-B
10:26PM 39.7588 -75.2670 48° Northeast 489 563 26,800 420 Climbing FlightAware ADS-B
10:26PM 39.7947 -75.2013 55° Northeast 498 573 27,000 1,200 Climbing FlightAware ADS-B
10:27PM 39.8308 -75.1147 61° Northeast 498 573 28,000 1,500 Climbing FlightAware ADS-B
10:28PM 39.8657 -75.0333 61° Northeast 507 583 28,600 1,260 Climbing FlightAware ADS-B
10:28PM 39.9031 -74.9475 60° Northeast 511 588 29,400 1,680 Climbing FlightAware ADS-B
10:28PM 39.9246 -74.9036 57° Northeast 515 593 30,000 1,920 Climbing FlightAware ADS-B
10:29PM 39.9464 -74.8663 53° Northeast 519 597 30,400 1,800 Climbing FlightAware ADS-B
10:29PM 39.9952 -74.7956 48° Northeast 520 598 31,400 1,800 Climbing FlightAware ADS-B
10:30PM 40.0447 -74.7242 48° Northeast 517 595 32,300 1,500 Climbing FlightAware ADS-B
10:30PM 40.0945 -74.6530 48° Northeast 513 590 33,000 660 Climbing FlightAware ADS-B
10:31PM 40.1431 -74.5843 47° Northeast 513 590 33,000  Level FlightAware ADS-B
10:31PM 40.1941 -74.5079 49° Northeast 507 583 33,000  Level FlightAware ADS-B
10:32PM 40.2426 -74.4365 48° Northeast 508 585 33,000  Level FlightAware ADS-B
10:32PM 40.2923 -74.3640 48° Northeast 505 581 33,000  Level FlightAware ADS-B
10:33PM 40.3442 -74.2891 48° Northeast 506 582 33,000  Level FlightAware ADS-B
10:33PM 40.3973 -74.2115 48° Northeast 508 585 33,000  Level FlightAware ADS-B
10:34PM 40.4447 -74.1424 48° Northeast 511 588 33,000  Level FlightAware ADS-B
10:34PM 40.5014 -74.0615 47° Northeast 513 590 33,000  Level FlightAware ADS-B
10:35PM 40.5536 -73.9844 48° Northeast 516 594 33,000  Level FlightAware ADS-B
10:36PM 40.6024 -73.9119 48° Northeast 518 596 33,000  Level FlightAware ADS-B
10:36PM 40.6598 -73.8270 48° Northeast 519 597 33,000  Level FlightAware ADS-B
10:37PM 40.7152 -73.7442 49° Northeast 521 600 33,000  Level FlightAware ADS-B
10:37PM 40.7650 -73.6706 48° Northeast 521 600 33,000  Level FlightAware ADS-B
10:38PM 40.8159 -73.5947 48° Northeast 520 598 33,000  Level FlightAware ADS-B
10:38PM 40.8716 -73.5116 48° Northeast 520 598 33,000  Level FlightAware ADS-B
10:39PM 40.9200 -73.4402 48° Northeast 519 597 33,000  Level FlightAware ADS-B
10:40PM 40.9833 -73.3448 49° Northeast 517 595 33,000  Level FlightAware ADS-B
10:40PM 41.0347 -73.2661 49° Northeast 517 595 33,000  Level FlightAware ADS-B
10:41PM 41.1374 -73.1299 45° Northeast 524 603 33,000  Level FlightAware ADS-B
10:42PM 41.2540 -72.9910 42° Northeast 524 603 33,000  Level FlightAware
10:43PM 41.3320 -72.8990 42° Northeast 522 601 33,000  Level FlightAware
10:44PM 41.4050 -72.8150 41° Northeast 522 601 33,000  Level FlightAware
10:44PM 41.4830 -72.7230 41° Northeast 522 601 33,000  Level FlightAware
10:45PM 41.5600 -72.6340 41° Northeast 521 600 33,000  Level FlightAware
10:46PM 41.6520 -72.5260 41° Northeast 521 600 33,000  Level FlightAware
10:46PM 41.7080 -72.4610 41° Northeast 521 600 33,000  Level FlightAware
10:47PM 41.8290 -72.3150 42° Northeast 518 596 33,000  Level FlightAware
10:48PM 41.9040 -72.2290 40° Northeast 518 596 33,000  Level FlightAware
10:49PM 41.9700 -72.1480 42° Northeast 518 596 33,000  Level FlightAware
10:50PM 42.0570 -72.0420 42° Northeast 517 595 33,000  Level FlightAware
10:50PM 42.1290 -71.9540 42° Northeast 518 596 33,000 300 Level FlightAware
10:51PM 42.1990 -71.8680 42° Northeast 527 606 33,400 720 Climbing FlightAware
10:52PM 42.2720 -71.7780 42° Northeast 535 616 34,000 1,020 Climbing FlightAware
10:52PM 42.3680 -71.6620 42° Northeast 535 616 35,000 600 Climbing FlightAware
10:53PM 42.4450 -71.5670 42° Northeast 535 616 35,000  Level FlightAware
10:54PM 42.5210 -71.4750 42° Northeast 528 608 35,000  Level FlightAware
10:54PM 42.5930 -71.3840 43° Northeast 525 604 35,000  Level FlightAware
10:55PM 42.6510 -71.3120 42° Northeast 528 608 35,000  Level FlightAware
10:56PM 42.7730 -71.1590 43° Northeast 532 612 35,000  Level FlightAware
10:57PM 42.8500 -71.0640 42° Northeast 533 613 35,000  Level FlightAware
10:58PM 42.9230 -70.9720 43° Northeast 533 613 35,000  Level FlightAware
10:58PM 43.0030 -70.8720 42° Northeast 534 615 35,000  Level FlightAware
10:59PM 43.0760 -70.7780 43° Northeast 535 616 35,000  Level FlightAware
11:00PM 43.1480 -70.6880 42° Northeast 534 615 35,000  Level FlightAware
11:00PM 43.2460 -70.5640 43° Northeast 534 615 35,000  Level FlightAware
11:01PM 43.3220 -70.4660 43° Northeast 534 615 35,000  Level FlightAware
11:02PM 43.4040 -70.3600 43° Northeast 534 615 35,000  Level FlightAware
11:03PM 43.4760 -70.2670 43° Northeast 533 613 35,000  Level FlightAware
11:03PM 43.5520 -70.1690 43° Northeast 534 615 35,000  Level FlightAware
11:04PM 43.6200 -70.0770 44° Northeast 532 612 35,000  Level FlightAware
11:05PM 43.7030 -69.9690 43° Northeast 532 612 35,000  Level FlightAware
11:05PM 43.7750 -69.8750 43° Northeast 532 612 35,000  Level FlightAware
11:06PM 43.8500 -69.7740 44° Northeast 532 612 35,000  Level FlightAware
11:07PM 43.9290 -69.6710 43° Northeast 533 613 35,000  Level FlightAware
11:08PM 44.0220 -69.5480 44° Northeast 534 615 35,000  Level FlightAware
11:08PM 44.0950 -69.4500 44° Northeast 536 617 35,000  Level FlightAware
11:09PM 44.1660 -69.3580 43° Northeast 536 617 35,000  Level FlightAware
11:10PM 44.2220 -69.2860 43° Northeast 536 617 35,000  Level FlightAware
11:12PM 44.3720 -69.0780 45° Northeast 538 619 35,000  Level FlightAware
11:12PM 44.5140 -68.8860 44° Northeast 539 620 35,000  Level FlightAware
11:13PM 44.5870 -68.7870 44° Northeast 540 621 35,000  Level FlightAware
11:14PM 44.6580 -68.6890 44° Northeast 540 621 35,000  Level FlightAware
11:14PM 44.7400 -68.5790 44° Northeast 541 623 35,000  Level FlightAware
11:15PM 44.8160 -68.4750 44° Northeast 542 624 35,000  Level FlightAware
11:16PM 44.8870 -68.3760 45° Northeast 542 624 35,000  Level FlightAware
11:17PM 44.9680 -68.2620 45° Northeast 543 625 35,000  Level FlightAware
11:17PM 45.0400 -68.1620 44° Northeast 543 625 35,000  Level FlightAware
11:18PM 45.1120 -68.0590 45° Northeast 542 624 35,000  Level FlightAware
11:19PM 45.1920 -67.9490 44° Northeast 542 624 35,000  Level FlightAware
11:19PM 45.2620 -67.8490 45° Northeast 542 624 35,000  Level FlightAware
11:20PM 45.3290 -67.7570 44° Northeast 542 624 35,000  Level FlightAware
11:21PM 45.4150 -67.6550 40° Northeast 545 627 35,000  Level FlightAware
11:21PM 45.5070 -67.5560 37° Northeast 545 627 35,000  Level FlightAware
11:22PM 45.5840 -67.4700 38° Northeast 538 619 35,000  Level FlightAware
11:23PM 45.6650 -67.3790 38° Northeast 540 621 35,000  Level FlightAware
11:24PM 45.7540 -67.2790 38° Northeast 539 620 35,000  Level FlightAware
11:24PM 45.8290 -67.1970 37° Northeast 539 620 35,000  Level FlightAware
11:25PM 45.9080 -67.1070 38° Northeast 540 621 35,000  Level FlightAware
11:26PM 45.9860 -67.0180 38° Northeast 539 620 35,000  Level FlightAware
11:26PM 46.0940 -66.8950 38° Northeast 545 627 35,000  Level FlightAware
11:27PM 46.1490 -66.8320 38° Northeast 545 627 35,000  Level FlightAware
11:27PM 46.2070 -66.7660 38° Northeast 545 627 35,000  Level FlightAware
11:28PM 46.2880 -66.6750 38° Northeast 545 627 35,000  Level FlightAware
11:29PM 46.3500 -66.6040 38° Northeast 545 627 35,000  Level FlightAware
11:30PM 46.4310 -66.5120 38° Northeast 545 627 35,000  Level FlightAware
11:30PM 46.5190 -66.4130 38° Northeast 545 627 35,000  Level FlightAware
11:31PM 46.6240 -66.2940 38° Northeast 545 627 35,000  Level FlightAware
11:32PM 46.6860 -66.2220 39° Northeast 545 627 35,000  Level FlightAware
11:33PM 46.7490 -66.1510 38° Northeast 545 627 35,000  Level FlightAware
11:34PM 46.8300 -66.0590 38° Northeast 545 627 35,000  Level FlightAware
11:34PM 46.8900 -65.9890 39° Northeast 545 627 35,000  Level FlightAware
11:35PM 46.9730 -65.8950 38° Northeast 545 627 35,000  Level FlightAware
11:36PM 47.0340 -65.8250 38° Northeast 545 627 35,000  Level FlightAware
11:36PM 47.1150 -65.7320 38° Northeast 545 627 35,000  Level FlightAware
11:37PM 47.1760 -65.6620 38° Northeast 545 627 35,000  Level FlightAware
11:38PM 47.4667 -65.2667 38° Northeast 540 621 35,000  Level Moncton Center
11:39PM 47.5667 -65.1333 42° Northeast 540 621 35,000  Level Moncton Center
11:40PM 47.6833 -65.0000 38° Northeast 540 621 35,000  Level Moncton Center
11:41PM 47.8000 -64.8500 41° Northeast 540 621 35,000  Level Moncton Center
11:42PM 47.9167 -64.7000 41° Northeast 540 621 35,000  Level Moncton Center
11:43PM 48.0333 -64.5500 41° Northeast 540 621 35,000  Level Moncton Center
11:44PM 48.1333 -64.4000 45° Northeast 540 621 35,000  Level Moncton Center
11:45PM 48.2500 -64.2667 37° Northeast 540 621 35,000  Level Moncton Center
11:46PM 48.3667 -64.1167 40° Northeast 540 621 35,000  Level Moncton Center
11:47PM 48.4833 -63.9667 40° Northeast 540 621 35,000  Level Moncton Center
11:48PM 48.6000 -63.8167 40° Northeast 540 621 35,000  Level Moncton Center
11:49PM 48.7167 -63.6667 40° Northeast 540 621 35,000  Level Moncton Center
11:50PM 48.8333 -63.5000 43° Northeast 550 633 35,000  Level Moncton Center
11:51PM 48.9500 -63.3833 33° Northeast 540 621 35,000  Level Moncton Center
11:52PM 49.0667 -63.2167 43° Northeast 540 621 35,000  Level Moncton Center
11:53PM 49.1667 -63.0667 44° Northeast 540 621 35,000  Level Moncton Center
11:54PM 49.3000 -62.9000 39° Northeast 550 633 35,000  Level Moncton Center
11:55PM 49.4000 -62.7500 44° Northeast 550 633 35,000  Level Moncton Center
11:56PM 49.5333 -62.5833 39° Northeast 550 633 35,000  Level Moncton Center
11:57PM 49.6333 -62.4333 44° Northeast 530 610 35,000  Level Moncton Center
11:58PM 49.7333 -62.3000 41° Northeast 550 633 35,000  Level Moncton Center
11:59PM 49.8500 -62.1333 43° Northeast 550 633 35,000  Level Moncton Center
12:00AM 49.9667 -61.9833 40° Northeast 550 633 35,000  Level Moncton Center
12:01AM 50.0833 -61.8167 42° Northeast 550 633 35,000  Level Moncton Center
12:02AM 50.2000 -61.6500 42° Northeast 550 633 35,000  Level Moncton Center
12:03AM 50.3333 -61.4833 39° Northeast 550 633 35,000  Level Moncton Center
12:04AM 50.4167 -61.3167 52° Northeast 530 610 35,000  Level Moncton Center
12:05AM 50.5333 -61.1500 42° Northeast 560 644 35,000  Level Moncton Center
12:06AM 50.6667 -60.9833 38° Northeast 550 633 35,000  Level Moncton Center
12:07AM 50.7667 -60.8167 46° Northeast 560 644 35,000  Level Moncton Center
12:08AM 50.8833 -60.6500 42° Northeast 550 633 35,000  Level Moncton Center
12:09AM 51.0000 -60.4833 42° Northeast 560 644 35,000  Level Moncton Center
12:10AM 51.1167 -60.3167 42° Northeast 550 633 35,000  Level Moncton Center
12:11AM 51.2167 -60.1500 46° Northeast 550 633 35,000  Level Moncton Center
12:12AM 51.3333 -59.9833 42° Northeast 550 633 35,000  Level Moncton Center
12:13AM 51.4333 -59.8000 49° Northeast 550 633 35,000  Level Moncton Center
12:14AM 51.5333 -59.6000 51° Northeast 550 633 35,000  Level Moncton Center
12:15AM 51.6333 -59.4333 46° Northeast 550 633 35,000  Level Moncton Center
12:16AM 51.7333 -59.2333 51° Northeast 560 644 35,000  Level Moncton Center
12:18AM 51.9167 -58.9167 47° Northeast 560 644 35,000  Level Gander Center
12:20AM 52.1167 -58.5333 50° Northeast 560 644 35,000  Level Gander Center
12:20AM 52.1333 -58.4833 61° Northeast 560 644 35,000  Level Moncton Center
12:21AM 52.2167 -58.3333 48° Northeast 580 667 35,000  Level Gander Center
12:21AM 52.2333 -58.2667 68° East 580 667 35,000  Level Moncton Center
12:22AM 52.3333 -58.1000 45° Northeast 560 644 35,000  Level Moncton Center
12:23AM 52.4167 -57.9667 44° Northeast 560 644 35,000  Level Gander Center
12:24AM 52.5000 -57.7333 60° Northeast 560 644 35,000  Level Gander Center
12:26AM 52.7167 -57.3667 46° Northeast 550 633 35,000  Level Gander Center
12:26AM 52.7333 -57.3000 68° East 560 644 35,000  Level Moncton Center
12:27AM 52.8167 -57.1167 53° Northeast 550 633 35,000  Level Moncton Center
12:28AM 52.9000 -56.9500 50° Northeast 540 621 35,000  Level Gander Center
12:29AM 53.0000 -56.7833 45° Northeast 550 633 35,000  Level Gander Center
12:29AM 53.0167 -56.7167 67° East 550 633 35,000  Level Moncton Center
12:30AM 53.1167 -56.5000 52° Northeast 550 633 35,000  Level Moncton Center
12:31AM 53.2000 -56.3667 44° Northeast 550 633 35,000  Level Gander Center
12:31AM 53.2000 -56.3167 90° East 550 633 35,000  Level Moncton Center
12:32AM 53.3167 -56.1000 48° Northeast 550 633 35,000  Level Moncton Center
12:33AM 53.4000 -55.9167 53° Northeast 550 633 35,000  Level Moncton Center
12:34AM 53.5000 -55.7000 52° Northeast 550 633 35,000  Level Moncton Center
12:35AM 53.5833 -55.5167 53° Northeast 550 633 35,000  Level Moncton Center
12:36AM 53.6833 -55.3000 52° Northeast 550 633 35,000  Level Moncton Center
12:37AM 53.7833 -55.1000 50° Northeast 560 644 35,000  Level Moncton Center
12:38AM 53.8667 -54.8833 57° Northeast 550 633 35,000  Level Moncton Center
12:39AM 53.9333 -54.6500 64° Northeast 560 644 35,000  Level Moncton Center
12:40AM 53.8667 -54.9667 67° East 558 642 35,000  Level ETMS Enhanced Traffic Management System
12:40AM 53.9833 -54.4000 67° East 560 644 35,000  Level Moncton Center
12:41AM 54.0500 -54.1833 62° Northeast 560 644 35,000  Level Moncton Center
12:42AM 54.0833 -54.0000 73° East 560 644 35,000  Level Gander Center
12:43AM 54.1500 -53.7333 67° East 560 644 35,000  Level Gander Center
12:44AM 54.2000 -53.5000 70° East 560 644 35,000  Level Gander Center
12:45AM 54.2500 -53.2667 70° East 560 644 35,000  Level Gander Center
12:46AM 54.3167 -53.0167 65° Northeast 560 644 35,000  Level Gander Center
12:47AM 54.3667 -52.7833 70° East 560 644 35,000  Level Gander Center
12:48AM 54.4167 -52.5000 73° East 560 644 35,000  Level Gander Center
12:49AM 54.4833 -52.2667 64° Northeast 560 644 35,000  Level Gander Center
12:50AM 54.5333 -52.0167 71° East 560 644 35,000  Level Gander Center
12:51AM 54.6000 -51.7667 65° Northeast 550 633 35,000  Level Gander Center
12:52AM 54.6500 -51.5333 70° East 550 633 35,000  Level Gander Center
12:53AM 54.7000 -51.2833 71° East 550 633 35,000  Level Gander Center
12:54AM 54.7667 -51.0333 65° Northeast 550 633 35,000  Level Gander Center
12:55AM 54.8000 -50.7667 78° East 550 633 35,000  Level Gander Center
12:56AM 54.8500 -50.5167 71° East 550 633 35,000  Level Gander Center
12:57AM 54.9000 -50.2667 71° East 550 633 35,000  Level Gander Center
12:58AM 54.9667 -50.0167 65° Northeast 550 633 35,000  Level Gander Center
01:00AM 55.0509 -49.6400 76° East  Level FlightAware Approximate
01:03AM 55.0000 -50.0000 76° East 559 643 35,000  Level ETMS Enhanced Traffic Management System
01:07AM 55.2764 -47.9319 76° East  Level FlightAware Approximate
01:08AM 55.3067 -47.6864 78° East  Level FlightAware Approximate
01:09AM 55.3364 -47.4404 78° East  Level FlightAware Approximate
01:10AM 55.3819 -47.0828 78° East 559 643 35,000  Level FlightAware Transoceanic
01:11AM 55.4132 -46.8149 79° East 559 643 35,000  Level FlightAware Transoceanic
01:12AM 55.4438 -46.5466 79° East 559 643 35,000  Level FlightAware Transoceanic
01:13AM 55.4739 -46.2778 79° East 559 643 35,000  Level FlightAware Transoceanic
01:14AM 55.5034 -46.0087 79° East 559 643 35,000  Level FlightAware Transoceanic
01:15AM 55.5322 -45.7392 79° East 559 643 35,000  Level FlightAware Transoceanic
01:16AM 55.5606 -45.4693 80° East 559 643 35,000  Level FlightAware Transoceanic
01:17AM 55.5882 -45.1990 80° East 559 643 35,000  Level FlightAware Transoceanic
01:18AM 55.6154 -44.9283 80° East 559 643 35,000  Level FlightAware Transoceanic
01:19AM 55.6419 -44.6572 80° East 559 643 35,000  Level FlightAware Transoceanic
01:20AM 55.6678 -44.3858 81° East 559 643 35,000  Level FlightAware Transoceanic
01:21AM 55.6931 -44.1140 81° East 559 643 35,000  Level FlightAware Transoceanic
01:22AM 55.7178 -43.8419 81° East 559 643 35,000  Level FlightAware Transoceanic
01:23AM 55.7419 -43.5694 81° East 559 643 35,000  Level FlightAware Transoceanic
01:24AM 55.7654 -43.2966 81° East 559 643 35,000  Level FlightAware Transoceanic
01:25AM 55.7883 -43.0235 82° East 559 643 35,000  Level FlightAware Transoceanic
01:26AM 55.8106 -42.7501 82° East 559 643 35,000  Level FlightAware Transoceanic
01:27AM 55.8323 -42.4763 82° East 559 643 35,000  Level FlightAware Transoceanic
01:28AM 55.8534 -42.2023 82° East 559 643 35,000  Level FlightAware Transoceanic
01:29AM 55.8739 -41.9279 83° East 559 643 35,000  Level FlightAware Transoceanic
01:30AM 55.8937 -41.6533 83° East 559 643 35,000  Level FlightAware Transoceanic
01:31AM 55.9130 -41.3784 83° East 559 643 35,000  Level FlightAware Transoceanic
01:32AM 55.9316 -41.1032 83° East 559 643 35,000  Level FlightAware Transoceanic
01:33AM 55.9496 -40.8278 83° East 559 643 35,000  Level FlightAware Transoceanic
01:34AM 55.9670 -40.5521 84° East 559 643 35,000  Level FlightAware Transoceanic
01:35AM 55.9838 -40.2762 84° East 559 643 35,000  Level FlightAware Transoceanic
01:36AM 55.9987 -40.0218 84° East  Level FlightAware Approximate
01:37AM 56.0131 -39.7672 84° East  Level FlightAware Approximate
01:38AM 56.0084 -39.7885 86° East  Level FlightAware Approximate
01:39AM 56.0181 -39.5331 86° East  Level FlightAware Approximate
01:39AM 56.0000 -40.0000 86° East 543 625 35,000  Level ETMS Enhanced Traffic Management System
01:40AM 56.0272 -39.2777 86° East  Level FlightAware Approximate
01:41AM 56.0358 -39.0221 86° East  Level FlightAware Approximate
01:42AM 56.0438 -38.7664 87° East  Level FlightAware Approximate
01:43AM 56.0514 -38.5106 87° East  Level FlightAware Approximate
01:44AM 56.0584 -38.2547 87° East  Level FlightAware Approximate
01:45AM 56.0745 -37.5709 88° East 543 625 35,000  Level FlightAware Transoceanic
01:46AM 56.0798 -37.3005 88° East 543 625 35,000  Level FlightAware Transoceanic
01:47AM 56.0845 -37.0300 88° East 543 625 35,000  Level FlightAware Transoceanic
01:48AM 56.0887 -36.7594 89° East 543 625 35,000  Level FlightAware Transoceanic
01:49AM 56.0922 -36.4889 89° East 543 625 35,000  Level FlightAware Transoceanic
01:50AM 56.0952 -36.2182 89° East 543 625 35,000  Level FlightAware Transoceanic
01:51AM 56.0976 -35.9475 89° East 543 625 35,000  Level FlightAware Transoceanic
01:52AM 56.0993 -35.6768 89° East 543 625 35,000  Level FlightAware Transoceanic
01:53AM 56.1005 -35.4061 90° East 543 625 35,000  Level FlightAware Transoceanic
01:54AM 56.1011 -35.1354 90° East 543 625 35,000  Level FlightAware Transoceanic
01:55AM 56.1011 -34.8646 90° East 543 625 35,000  Level FlightAware Transoceanic
01:56AM 56.1005 -34.5939 90° East 543 625 35,000  Level FlightAware Transoceanic
01:57AM 56.0993 -34.3232 91° East 543 625 35,000  Level FlightAware Transoceanic
01:58AM 56.0976 -34.0525 91° East 543 625 35,000  Level FlightAware Transoceanic
01:59AM 56.0952 -33.7818 91° East 543 625 35,000  Level FlightAware Transoceanic
02:00AM 56.0922 -33.5111 91° East 543 625 35,000  Level FlightAware Transoceanic
02:01AM 56.0887 -33.2406 91° East 543 625 35,000  Level FlightAware Transoceanic
02:02AM 56.0845 -32.9700 92° East 543 625 35,000  Level FlightAware Transoceanic
02:03AM 56.0798 -32.6995 92° East 543 625 35,000  Level FlightAware Transoceanic
02:04AM 56.0745 -32.4291 92° East 543 625 35,000  Level FlightAware Transoceanic
02:05AM 56.0686 -32.1588 92° East 543 625 35,000  Level FlightAware Transoceanic
02:06AM 56.0621 -31.8886 93° East 543 625 35,000  Level FlightAware Transoceanic
02:07AM 56.0550 -31.6184 93° East 543 625 35,000  Level FlightAware Transoceanic
02:08AM 56.0473 -31.3484 93° East 543 625 35,000  Level FlightAware Transoceanic
02:09AM 56.0390 -31.0784 93° East 543 625 35,000  Level FlightAware Transoceanic
02:10AM 56.0301 -30.8086 93° East 543 625 35,000  Level FlightAware Transoceanic
02:11AM 56.0207 -30.5389 94° East 543 625 35,000  Level FlightAware Transoceanic
02:12AM 56.0106 -30.2694 94° East 543 625 35,000  Level FlightAware Transoceanic
02:13AM 56.0006 -30.0142 94° East  Level FlightAware Approximate
02:14AM 55.9901 -29.7591 94° East  Level FlightAware Approximate
02:15AM 55.9868 -29.7738 96° East  Level FlightAware Approximate
02:16AM 55.9715 -29.5196 96° East  Level FlightAware Approximate
02:16AM 56.0000 -30.0000 96° East 530 610 35,000  Level ETMS Enhanced Traffic Management System
02:17AM 55.9556 -29.2656 96° East  Level FlightAware Approximate
02:18AM 55.9392 -29.0118 96° East  Level FlightAware Approximate
02:19AM 55.9223 -28.7582 97° East  Level FlightAware Approximate
02:20AM 55.9049 -28.5049 97° East  Level FlightAware Approximate
02:21AM 55.8869 -28.2517 97° East  Level FlightAware Approximate
02:22AM 55.8619 -27.9102 98° East 530 610 35,000  Level FlightAware Transoceanic
02:23AM 55.8421 -27.6501 98° East 530 610 35,000  Level FlightAware Transoceanic
02:24AM 55.8218 -27.3903 98° East 530 610 35,000  Level FlightAware Transoceanic
02:25AM 55.8010 -27.1307 98° East 530 610 35,000  Level FlightAware Transoceanic
02:26AM 55.7796 -26.8714 98° East 530 610 35,000  Level FlightAware Transoceanic
02:27AM 55.7577 -26.6124 99° East 530 610 35,000  Level FlightAware Transoceanic
02:28AM 55.7352 -26.3537 99° East 530 610 35,000  Level FlightAware Transoceanic
02:29AM 55.7122 -26.0953 99° East 530 610 35,000  Level FlightAware Transoceanic
02:30AM 55.6886 -25.8372 99° East 530 610 35,000  Level FlightAware Transoceanic
02:31AM 55.6645 -25.5794 100° East 530 610 35,000  Level FlightAware Transoceanic
02:32AM 55.6399 -25.3219 100° East 530 610 35,000  Level FlightAware Transoceanic
02:33AM 55.6147 -25.0648 100° East 530 610 35,000  Level FlightAware Transoceanic
02:34AM 55.5890 -24.8080 100° East 530 610 35,000  Level FlightAware Transoceanic
02:35AM 55.5627 -24.5515 100° East 530 610 35,000  Level FlightAware Transoceanic
02:36AM 55.5359 -24.2954 101° East 530 610 35,000  Level FlightAware Transoceanic
02:37AM 55.5086 -24.0396 101° East 530 610 35,000  Level FlightAware Transoceanic
02:38AM 55.4807 -23.7842 101° East 530 610 35,000  Level FlightAware Transoceanic
02:39AM 55.4524 -23.5292 101° East 530 610 35,000  Level FlightAware Transoceanic
02:40AM 55.4234 -23.2745 101° East 530 610 35,000  Level FlightAware Transoceanic
02:41AM 55.3940 -23.0202 102° East 530 610 35,000  Level FlightAware Transoceanic
02:42AM 55.3640 -22.7663 102° East 530 610 35,000  Level FlightAware Transoceanic
02:43AM 55.3335 -22.5128 102° East 530 610 35,000  Level FlightAware Transoceanic
02:44AM 55.3025 -22.2596 102° East 530 610 35,000  Level FlightAware Transoceanic
02:45AM 55.2710 -22.0069 102° East 530 610 35,000  Level FlightAware Transoceanic
02:46AM 55.2389 -21.7546 103° East 530 610 35,000  Level FlightAware Transoceanic
02:47AM 55.2063 -21.5026 103° East 530 610 35,000  Level FlightAware Transoceanic
02:48AM 55.1732 -21.2511 103° East 530 610 35,000  Level FlightAware Transoceanic
02:49AM 55.1396 -21.0000 103° East 530 610 35,000  Level FlightAware Transoceanic
02:50AM 55.1055 -20.7494 103° East 530 610 35,000  Level FlightAware Transoceanic
02:51AM 55.0708 -20.4991 104° East 530 610 35,000  Level FlightAware Transoceanic
02:52AM 55.0357 -20.2493 104° East 530 610 35,000  Level FlightAware Transoceanic
02:53AM 55.0010 -20.0072 104° East  Level FlightAware Approximate
02:54AM 54.9660 -19.7655 104° East  Level FlightAware Approximate
02:55AM 54.9718 -19.7708 102° East  Level FlightAware Approximate
02:56AM 54.9413 -19.5274 102° East  Level FlightAware Approximate
02:57AM 54.9103 -19.2843 102° East  Level FlightAware Approximate
02:58AM 54.8789 -19.0416 103° East  Level FlightAware Approximate
02:59AM 54.8470 -18.7993 103° East  Level FlightAware Approximate
03:00AM 54.8145 -18.5574 103° East  Level FlightAware Approximate
03:01AM 54.7816 -18.3159 103° East  Level FlightAware Approximate
03:02AM 54.7483 -18.0748 103° East  Level FlightAware Approximate
03:03AM 54.7144 -17.8340 104° East  Level FlightAware Approximate
03:04AM 54.6801 -17.5937 104° East  Level FlightAware Approximate
03:05AM 54.6453 -17.3538 104° East  Level FlightAware Approximate
03:06AM 54.6100 -17.1143 104° East  Level FlightAware Approximate
03:07AM 54.5743 -16.8752 104° East  Level FlightAware Approximate
03:08AM 54.5380 -16.6366 105° East  Level FlightAware Approximate
03:09AM 54.5014 -16.3983 105° East  Level FlightAware Approximate
03:10AM 54.4642 -16.1605 105° East  Level FlightAware Approximate
03:11AM 54.4266 -15.9232 105° East  Level FlightAware Approximate
03:12AM 54.3885 -15.6862 105° East  Level FlightAware Approximate
03:13AM 54.3499 -15.4498 106° East  Level FlightAware Approximate
03:14AM 54.3109 -15.2137 106° East  Level FlightAware Approximate
03:15AM 54.2715 -14.9781 106° East  Level FlightAware Approximate
03:16AM 54.2315 -14.7430 106° East  Level FlightAware Approximate
03:17AM 54.1912 -14.5083 106° East  Level FlightAware Approximate
03:18AM 54.1503 -14.2741 106° East  Level FlightAware Approximate
03:19AM 54.1100 -14.0399 105° East  Level FlightAware Approximate
03:20AM 54.0722 -13.8046 107° East  Level FlightAware Approximate
03:21AM 54.0302 -13.5717 107° East  Level FlightAware Approximate
03:22AM 53.9876 -13.3393 107° East  Level FlightAware Approximate
03:23AM 53.9447 -13.1073 107° East  Level FlightAware Approximate
03:24AM 53.9012 -12.8758 108° East  Level FlightAware Approximate
03:25AM 53.8574 -12.6448 108° East  Level FlightAware Approximate
03:26AM 53.8131 -12.4143 108° East  Level FlightAware Approximate
03:27AM 53.7683 -12.1843 108° East  Level FlightAware Approximate
03:28AM 53.7231 -11.9548 108° East  Level FlightAware Approximate
03:29AM 53.6775 -11.7257 109° East  Level FlightAware Approximate
03:29AM 53.5710 -12.3140 109° East 465 535 35,000  Level FlightAware
03:30AM 53.6315 -11.4972 109° East  Level FlightAware Approximate
03:30AM 53.5480 -12.1700 105° East 466 536 35,000  Level FlightAware
03:31AM 53.5250 -12.0340 106° East 467 537 35,000  Level FlightAware
03:31AM 53.4980 -11.8730 106° East 468 539 35,000  Level FlightAware
03:32AM 53.4730 -11.7340 107° East 469 540 35,000  Level FlightAware
03:33AM 53.4490 -11.5980 106° East 467 537 35,000  Level FlightAware
03:34AM 53.4200 -11.4420 107° East 468 539 35,000  Level FlightAware
03:34AM 53.3940 -11.2990 107° East 469 540 35,000  Level FlightAware
03:35AM 53.3640 -11.1420 108° East 473 544 35,000  Level FlightAware
03:36AM 53.3370 -11.0030 108° East 474 545 35,000  Level FlightAware
03:36AM 53.3090 -10.8600 108° East 475 547 35,000  Level FlightAware
03:37AM 53.2790 -10.7070 108° East 475 547 35,000  Level FlightAware
03:38AM 53.2500 -10.5640 109° East 477 549 35,000  Level FlightAware
03:38AM 53.2230 -10.4280 108° East 475 547 35,000  Level FlightAware
03:39AM 53.1910 -10.2710 109° East 476 548 35,000  Level FlightAware
03:40AM 53.1620 -10.1270 109° East 477 549 35,000  Level FlightAware
03:41AM 53.1320 -9.9770 108° East 477 549 35,000  Level FlightAware
03:41AM 53.1010 -9.8220 108° East 479 551 35,000  Level FlightAware
03:42AM 53.0720 -9.6790 109° East 480 552 35,000  Level FlightAware
03:43AM 53.0490 -9.5660 109° East 480 552 35,000  Level FlightAware
03:43AM 53.0140 -9.3940 109° East 481 554 35,000  Level FlightAware
03:44AM 52.9650 -9.1600 109° East 481 554 35,000  Level FlightAware
03:45AM 52.9304 -8.9945 109° East 454 522 35,000  Level FlightAware UK
03:45AM 52.9300 -8.9910 109° East 485 558 35,000  Level FlightAware
03:45AM 52.9170 -8.9314 109° East 454 522 35,000  Level FlightAware UK
03:46AM 52.9036 -8.8688 110° East 454 522 35,000  Level FlightAware UK
03:46AM 52.8990 -8.8520 110° East 485 558 35,000  Level FlightAware
03:46AM 52.8855 -8.7848 110° East 454 522 35,000  Level FlightAware UK
03:46AM 52.8720 -8.7218 110° East 454 522 35,000  Level FlightAware UK
03:47AM 52.8660 -8.6980 110° East 486 559 35,000  Level FlightAware
03:47AM 52.8497 -8.6170 110° East 454 522 35,000  Level FlightAware UK
03:47AM 52.8360 -8.5541 110° East 454 522 35,000  Level FlightAware UK
03:47AM 52.8380 -8.5680 110° East 486 559 35,000  Level FlightAware
03:48AM 52.8223 -8.4912 110° East 454 522 35,000  Level FlightAware UK
03:48AM 52.8084 -8.4283 110° East 454 522 35,000  Level FlightAware UK
03:48AM 52.8030 -8.4070 110° East 487 560 35,000  Level FlightAware
03:48AM 52.7898 -8.3437 110° East 454 522 35,000  Level FlightAware UK
03:49AM 52.7759 -8.2807 110° East 454 522 35,000  Level FlightAware UK
03:49AM 52.7690 -8.2500 110° East 486 559 35,000  Level FlightAware
03:49AM 52.7526 -8.1758 110° East 454 522 35,000  Level FlightAware UK
03:49AM 52.7384 -8.1128 110° East 454 522 35,000  Level FlightAware UK
03:49AM 52.7380 -8.1140 110° East 488 562 35,000  Level FlightAware
03:50AM 52.7239 -8.0499 110° East 456 525 35,000  Level FlightAware UK
03:50AM 52.7091 -7.9874 111° Southeast 454 522 35,000  Level FlightAware UK
03:50AM 52.7010 -7.9540 111° Southeast 490 564 35,000  Level FlightAware
03:50AM 52.6844 -7.8834 111° Southeast 452 520 35,000  Level FlightAware UK
03:51AM 52.6695 -7.8210 111° Southeast 454 522 35,000  Level FlightAware UK
03:51AM 52.6720 -7.8320 111° Southeast 490 564 35,000  Level FlightAware
03:51AM 52.6546 -7.7587 111° Southeast 454 522 35,000  Level FlightAware UK
03:51AM 52.6399 -7.6962 111° Southeast 454 522 35,000  Level FlightAware UK
03:52AM 52.6320 -7.6620 111° Southeast 491 565 35,000  Level FlightAware
03:52AM 52.6158 -7.5913 111° Southeast 454 522 35,000  Level FlightAware UK
03:52AM 52.6070 -7.5540 111° Southeast 491 565 35,000  Level FlightAware
03:52AM 52.6014 -7.5285 111° Southeast 454 522 35,000  Level FlightAware UK
03:52AM 52.5868 -7.4656 111° Southeast 454 522 35,000  Level FlightAware UK
03:53AM 52.5723 -7.4027 111° Southeast 454 522 35,000  Level FlightAware UK
03:53AM 52.5670 -7.3830 111° Southeast 492 566 35,000  Level FlightAware
03:53AM 52.5530 -7.3187 111° Southeast 454 522 35,000  Level FlightAware UK
03:53AM 52.5385 -7.2557 111° Southeast 454 522 35,000  Level FlightAware UK
03:54AM 52.5340 -7.2400 111° Southeast 493 567 35,000  Level FlightAware
03:54AM 52.5189 -7.1719 111° Southeast 452 520 35,000  Level FlightAware UK
03:54AM 52.5041 -7.1084 111° Southeast 452 520 35,000  Level FlightAware UK
03:54AM 52.5010 -7.1000 111° Southeast 495 570 35,000  Level FlightAware
03:55AM 52.4842 -7.0247 111° Southeast 452 520 35,000  Level FlightAware UK
03:55AM 52.4693 -6.9617 111° Southeast 452 520 35,000  Level FlightAware UK
03:55AM 52.4640 -6.9430 111° Southeast 495 570 35,000  Level FlightAware
03:55AM 52.4495 -6.8778 111° Southeast 452 520 35,000 -540 Level FlightAware UK
03:56AM 52.4345 -6.8149 111° Southeast 456 525 34,700 -840 Descending FlightAware UK
03:56AM 52.4320 -6.8060 111° Southeast 503 579 34,700 -1,260 Level FlightAware
03:56AM 52.4144 -6.7303 111° Southeast 460 529 34,200 -1,320 Descending FlightAware UK
03:56AM 52.3990 -6.6665 112° Southeast 454 522 33,900 -1,200 Descending FlightAware UK
03:56AM 52.3930 -6.6440 112° Southeast 491 565 33,700 -1,500 Descending FlightAware
03:57AM 52.3790 -6.5832 112° Southeast 446 513 33,300 -1,260 Descending FlightAware UK
03:57AM 52.3643 -6.5227 112° Southeast 442 509 33,000 -660 Descending FlightAware UK
03:57AM 52.3650 -6.5280 112° Southeast 481 554 33,100  Climbing FlightAware
03:57AM 52.3448 -6.4425 112° Southeast 434 499 33,000 -180 Descending FlightAware UK
03:58AM 52.3303 -6.3828 112° Southeast 432 497 33,000  Level FlightAware UK
03:58AM 52.3350 -6.4050 112° Southeast 473 544 33,000  Level FlightAware
03:58AM 52.3157 -6.3229 112° Southeast 438 504 33,000  Level FlightAware UK
03:58AM 52.3010 -6.2619 112° Southeast 446 513 33,000  Level FlightAware UK
03:58AM 52.2910 -6.2210 112° Southeast 495 570 33,000  Level FlightAware
03:59AM 52.2702 -6.1357 112° Southeast 456 525 33,000  Level FlightAware UK
03:59AM 52.2570 -6.0820 112° Southeast 499 574 33,000  Level FlightAware
03:59AM 52.2549 -6.0729 112° Southeast 458 527 33,000  Level FlightAware UK
03:59AM 52.2393 -6.0099 112° Southeast 458 527 33,000  Level FlightAware UK
04:00AM 52.2236 -5.9463 112° Southeast 460 529 33,000  Level FlightAware UK
04:00AM 52.2230 -5.9460 112° Southeast 502 578 33,000  Level FlightAware
04:00AM 52.2080 -5.8832 112° Southeast 460 529 33,000  Level FlightAware UK
04:00AM 52.1922 -5.8203 112° Southeast 460 529 33,000  Level FlightAware UK
04:01AM 52.1765 -5.7575 112° Southeast 460 529 33,000  Level FlightAware UK
04:01AM 52.1680 -5.7250 112° Southeast 500 575 33,000  Level FlightAware
04:01AM 52.1503 -5.6530 112° Southeast 458 527 33,000  Level FlightAware UK
04:01AM 52.1346 -5.5905 112° Southeast 458 527 33,000  Level FlightAware UK
04:02AM 52.1300 -5.5720 112° Southeast 498 573 33,000  Level FlightAware
04:02AM 52.1143 -5.5069 112° Southeast 458 527 33,000  Level FlightAware UK
04:02AM 52.0990 -5.4320 112° Southeast 496 571 33,000  Level FlightAware
04:03AM 52.0707 -5.2954 112° Southeast 456 525 33,000  Level FlightAware UK
04:03AM 52.0650 -5.2700 112° Southeast 497 572 33,000  Level FlightAware
04:03AM 52.0522 -5.2110 112° Southeast 456 525 33,000  Level FlightAware UK
04:04AM 52.0360 -5.1400 112° Southeast 496 571 33,000  Level FlightAware
04:04AM 52.0197 -5.0628 112° Southeast 458 527 33,000  Level FlightAware UK
04:04AM 52.0058 -4.9996 110° East 458 527 33,000  Level FlightAware UK
04:04AM 52.0020 -4.9860 110° East 497 572 33,000  Level FlightAware
04:05AM 51.9872 -4.9155 110° East 460 529 33,000  Level FlightAware UK
04:05AM 51.9684 -4.8314 110° East 460 529 33,000  Level FlightAware UK
04:05AM 51.9543 -4.7685 110° East 460 529 33,000  Level FlightAware UK
04:06AM 51.9309 -4.6636 110° East 458 527 33,000  Level FlightAware UK
04:06AM 51.9520 -4.7580 110° East 496 571 33,000 -900 Level FlightAware
04:07AM 51.8820 -4.4480 110° East 505 581 32,100 -1,260 Descending FlightAware
04:07AM 51.8635 -4.3665 110° East 468 539 31,700 -960 Descending FlightAware UK
04:08AM 51.8520 -4.3180 110° East 502 578 31,500 -1,020 Descending FlightAware
04:08AM 51.8492 -4.3033 110° East 464 534 31,400 -1,140 Descending FlightAware UK
04:08AM 51.8250 -4.1974 110° East 458 527 30,900 -600 Descending FlightAware UK
04:08AM 51.8140 -4.1530 110° East 495 570 31,000 180 Climbing FlightAware
04:09AM 51.8010 -4.0933 110° East 454 522 31,000  Level FlightAware UK
04:09AM 51.7820 -4.0105 110° East 454 522 31,000  Level FlightAware UK
04:09AM 51.7810 -4.0080 110° East 492 566 31,000  Level FlightAware
04:09AM 51.7678 -3.9487 110° East 454 522 31,000  Level FlightAware UK
04:10AM 51.7450 -3.8530 110° East 497 572 31,000  Level FlightAware
04:10AM 51.7292 -3.7831 110° East 462 532 31,000  Level FlightAware UK
04:10AM 51.7140 -3.7210 110° East 497 572 31,000  Level FlightAware
04:11AM 51.6846 -3.5953 110° East 464 534 31,000  Level FlightAware UK
04:11AM 51.6830 -3.5900 110° East 497 572 31,000  Level FlightAware
04:12AM 51.6547 -3.4708 110° East 464 534 31,000  Level FlightAware UK
04:12AM 51.6450 -3.4340 110° East 497 572 31,000  Level FlightAware
04:12AM 51.6297 -3.3673 110° East 466 536 31,000  Level FlightAware UK
04:12AM 51.6170 -3.3100 110° East 491 565 31,000 -660 Level FlightAware
04:13AM 51.5976 -3.1985 110° East 466 536 30,500 -1,020 Descending FlightAware UK
04:13AM 51.5900 -3.1440 110° East 483 556 30,300 -1,020 Descending FlightAware
04:14AM 51.5726 -3.0097 110° East 454 522 29,600 -960 Descending FlightAware UK
04:14AM 51.5690 -2.9860 110° East 465 535 29,600 -840 Level FlightAware
04:14AM 51.5587 -2.9099 110° East 448 516 29,200 -1,020 Descending FlightAware UK
04:15AM 51.5530 -2.8670 110° East 448 516 29,000 -1,200 Descending FlightAware
04:15AM 51.5455 -2.8133 110° East 440 506 28,600 -1,080 Descending FlightAware UK
04:15AM 51.5410 -2.7770 103° East 438 504 28,500 -1,020 Descending FlightAware
04:15AM 51.5375 -2.7557 103° East 434 499 28,300 -1,320 Descending FlightAware UK
04:15AM 51.5298 -2.6991 103° East 428 493 28,000 -1,920 Descending FlightAware UK
04:16AM 51.5230 -2.6510 103° East 434 499 27,100 -2,760 Descending FlightAware
04:16AM 51.5116 -2.5658 103° East 444 511 26,100 -1,980 Descending FlightAware UK
04:16AM 51.5037 -2.5113 103° East 432 497 25,800 -1,140 Descending FlightAware UK
04:17AM 51.5002 -2.4877 103° East 413 475 25,600 -2,040 Descending FlightAware ADS-B
04:17AM 51.4875 -2.3907 102° East 401 461 24,400 -2,280 Descending FlightAware ADS-B
04:18AM 51.4749 -2.2952 102° East 396 456 23,100 -2,400 Descending FlightAware ADS-B
04:18AM 51.4632 -2.2040 102° East 390 449 21,800 -2,400 Descending FlightAware ADS-B
04:18AM 51.4559 -2.1474 102° East 404 465 21,100 -2,100 Descending FlightAware UK
04:19AM 51.4484 -2.0926 102° East 379 436 20,400 -2,220 Descending FlightAware ADS-B
04:19AM 51.4426 -2.0485 102° East 396 456 19,800 -2,340 Descending FlightAware UK
04:19AM 51.4367 -2.0084 102° East 375 432 19,200 -2,100 Descending FlightAware ADS-B
04:20AM 51.4251 -1.9283 103° East 366 421 18,200 -2,100 Descending FlightAware ADS-B
04:20AM 51.4139 -1.8475 102° East 360 414 17,100 -2,280 Descending FlightAware ADS-B
04:21AM 51.4063 -1.7947 102° East 372 428 16,300 -2,160 Descending FlightAware UK
04:21AM 51.4024 -1.7702 102° East 356 410 16,000 -2,220 Descending FlightAware ADS-B
04:21AM 51.3909 -1.6907 103° East 356 410 14,800 -1,680 Descending FlightAware ADS-B
04:22AM 51.3794 -1.6118 103° East 353 406 14,300 -1,080 Descending FlightAware ADS-B
04:22AM 51.3727 -1.5643 103° East 362 417 13,900 -1,020 Descending FlightAware UK
04:22AM 51.3681 -1.5357 103° East 350 403 13,800 -1,020 Descending FlightAware ADS-B
04:23AM 51.3614 -1.4892 103° East 358 412 13,400 -1,020 Descending FlightAware UK
04:23AM 51.3569 -1.4583 103° East 348 400 13,300 -600 Descending FlightAware ADS-B
04:23AM 51.3456 -1.3834 104° East 344 396 13,000 -300 Descending FlightAware ADS-B
04:24AM 51.3339 -1.3044 103° East 345 397 13,000  Level FlightAware ADS-B
04:24AM 51.3225 -1.2295 104° East 348 400 13,000  Level FlightAware ADS-B
04:25AM 51.3179 -1.1969 103° East 347 399 13,000  Level FlightAware ADS-B
04:25AM 51.3152 -1.1692 99° East 345 397 13,000  Level FlightAware ADS-B
04:25AM 51.3138 -1.1388 94° East 343 395 13,000  Level FlightAware ADS-B
04:25AM 51.3133 -1.0989 94° East 356 410 13,000  Level FlightAware UK
04:26AM 51.3129 -1.0628 94° East 344 396 13,000  Level FlightAware ADS-B
04:26AM 51.3124 -1.0227 94° East 358 412 13,000  Level FlightAware UK
04:26AM 51.3120 -0.9814 94° East 344 396 13,000 -300 Level FlightAware ADS-B
04:27AM 51.3110 -0.9007 91° East 339 390 12,800 -840 Descending FlightAware ADS-B
04:27AM 51.3099 -0.8273 91° East 323 372 12,200 -1,140 Descending FlightAware ADS-B
04:27AM 51.3092 -0.7852 91° East 326 375 11,900 -780 Descending FlightAware UK
04:28AM 51.3084 -0.7558 91° East 305 351 11,800 -840 Descending FlightAware ADS-B
04:28AM 51.3077 -0.7186 91° East 306 352 11,500 -600 Descending FlightAware UK
04:28AM 51.3073 -0.6890 91° East 282 325 11,500 -420 Level FlightAware ADS-B
04:28AM 51.3068 -0.6562 91° East 286 329 11,300 -600 Descending FlightAware UK
04:29AM 51.3069 -0.6269 91° East 263 303 11,200 -840 Descending FlightAware ADS-B
04:29AM 51.3057 -0.5702 92° East 252 290 10,700 -1,020 Descending FlightAware ADS-B
04:30AM 51.3047 -0.5225 92° East 246 283 10,300 -1,020 Descending FlightAware ADS-B
04:30AM 51.3050 -0.5154 86° East 244 281 10,200 -780 Descending FlightAware ADS-B
04:30AM 51.3060 -0.5081 78° East 243 280 10,200 -900 Level FlightAware ADS-B
04:30AM 51.3071 -0.5031 71° East 242 278 10,100 -1,740 Descending FlightAware ADS-B
04:30AM 51.3093 -0.4966 61° Northeast 241 277 10,000 -1,500 Descending FlightAware ADS-B
04:30AM 51.3121 -0.4893 58° Northeast 241 277 9,900 -1,500 Descending FlightAware ADS-B
04:30AM 51.3152 -0.4842 46° Northeast 240 276 9,800 -1,500 Descending FlightAware ADS-B
04:30AM 51.3224 -0.4774 31° Northeast 240 276 9,600 -1,620 Descending FlightAware ADS-B
04:30AM 51.3299 -0.4733 19° North 240 276 9,400 -1,200 Descending FlightAware ADS-B
04:30AM 51.3334 -0.4726 North 241 277 9,400 -780 Level FlightAware ADS-B
04:30AM 51.3387 -0.4725 North 241 277 9,300 -1,500 Descending FlightAware ADS-B
04:30AM 51.3421 -0.4733 352° North 242 278 9,200 -1,500 Descending FlightAware ADS-B
04:31AM 51.3476 -0.4757 345° North 242 278 9,100 -1,500 Descending FlightAware ADS-B
04:31AM 51.3507 -0.4779 336° Northwest 243 280 9,000 -2,040 Descending FlightAware ADS-B
04:31AM 51.3568 -0.4851 324° Northwest 245 282 8,800 -1,800 Descending FlightAware ADS-B
04:31AM 51.3594 -0.4890 317° Northwest 247 284 8,700 -1,500 Descending FlightAware ADS-B
04:31AM 51.3622 -0.4948 308° West 249 287 8,600 -1,500 Descending FlightAware ADS-B
04:31AM 51.3650 -0.5031 299° West 252 290 8,500 -1,200 Descending FlightAware ADS-B
04:31AM 51.3671 -0.5119 291° West 255 293 8,400 -1,200 Descending FlightAware ADS-B
04:31AM 51.3678 -0.5193 279° West 257 296 8,300 -1,500 Descending FlightAware ADS-B
04:31AM 51.3680 -0.5270 272° West 258 297 8,200 -780 Descending FlightAware ADS-B
04:31AM 51.3676 -0.5348 265° West 258 297 8,200 -900 Level FlightAware ADS-B
04:31AM 51.3642 -0.5667 260° West 256 295 7,900 -1,200 Descending FlightAware ADS-B
04:32AM 51.3617 -0.5930 261° West 256 295 7,600 -1,440 Descending FlightAware ADS-B
04:32AM 51.3591 -0.6230 262° West 256 295 7,200 -1,500 Descending FlightAware ADS-B
04:32AM 51.3585 -0.6305 263° West 256 295 7,100 -900 Descending FlightAware ADS-B
04:32AM 51.3583 -0.6362 267° West 254 292 7,100 -900 Level FlightAware ADS-B
04:32AM 51.3585 -0.6437 272° West 253 291 7,000 -1,620 Descending FlightAware ADS-B
04:32AM 51.3608 -0.6715 278° West 252 290 6,600 -1,440 Descending FlightAware ADS-B
04:33AM 51.3631 -0.7011 277° West 253 291 6,300 -1,200 Descending FlightAware ADS-B
04:33AM 51.3654 -0.7289 278° West 252 290 6,000 -1,200 Descending FlightAware ADS-B
04:33AM 51.3679 -0.7583 278° West 248 285 5,700 -960 Descending FlightAware ADS-B
04:33AM 51.3702 -0.7871 277° West 242 278 5,500 -600 Descending FlightAware ADS-B
04:34AM 51.3723 -0.8131 277° West 232 267 5,400 -420 Descending FlightAware ADS-B
04:34AM 51.3740 -0.8362 277° West 219 252 5,300 -420 Descending FlightAware ADS-B
04:34AM 51.3757 -0.8614 276° West 210 242 5,200 -360 Descending FlightAware ADS-B
04:34AM 51.3763 -0.8658 282° West 204 235 5,200  Level FlightAware ADS-B
04:34AM 51.3771 -0.8716 282° West 197 227 5,200 -900 Level FlightAware ADS-B
04:34AM 51.3785 -0.8770 293° West 193 222 5,100 -900 Descending FlightAware ADS-B
04:34AM 51.3800 -0.8805 304° West 188 216 5,100  Level FlightAware ADS-B
04:34AM 51.3825 -0.8846 314° West 183 211 5,100  Level FlightAware ADS-B
04:35AM 51.3848 -0.8871 326° Northwest 181 208 5,100 -780 Level FlightAware ADS-B
04:35AM 51.3882 -0.8903 330° Northwest 178 205 5,000 -600 Descending FlightAware ADS-B
04:35AM 51.3926 -0.8921 345° North 177 204 5,000 -480 Level FlightAware ADS-B
04:35AM 51.3992 -0.8939 350° North 177 204 4,900 -540 Descending FlightAware ADS-B
04:35AM 51.4109 -0.8977 349° North 177 204 4,800 -420 Descending FlightAware ADS-B
04:35AM 51.4230 -0.9018 348° North 176 203 4,700 -540 Descending FlightAware ADS-B
04:35AM 51.4300 -0.9042 348° North 176 203 4,600 -600 Descending FlightAware ADS-B
04:36AM 51.4386 -0.9072 348° North 175 201 4,500 -420 Descending FlightAware ADS-B
04:36AM 51.4432 -0.9079 355° North 174 200 4,500  Level FlightAware ADS-B
04:36AM 51.4465 -0.9070 North 174 200 4,500 -780 Level FlightAware ADS-B
04:36AM 51.4490 -0.9058 18° North 173 199 4,400 -780 Descending FlightAware ADS-B
04:36AM 51.4521 -0.9031 28° Northeast 173 199 4,400  Level FlightAware ADS-B
04:36AM 51.4547 -0.8987 47° Northeast 173 199 4,400  Level FlightAware ADS-B
04:36AM 51.4565 -0.8944 56° Northeast 175 201 4,400 -720 Level FlightAware ADS-B
04:36AM 51.4585 -0.8900 54° Northeast 175 201 4,300 -600 Descending FlightAware ADS-B
04:36AM 51.4649 -0.8719 60° Northeast 175 201 4,200 -420 Descending FlightAware ADS-B
04:37AM 51.4714 -0.8542 59° Northeast 173 199 4,100 -660 Descending FlightAware ADS-B
04:37AM 51.4726 -0.8508 61° Northeast 174 200 4,000 -900 Descending FlightAware ADS-B
04:37AM 51.4741 -0.8448 68° East 174 200 4,000 -780 Level FlightAware ADS-B
04:37AM 51.4748 -0.8398 77° East 177 204 3,900 -720 Descending FlightAware ADS-B
04:37AM 51.4755 -0.8331 80° East 178 205 3,900  Level FlightAware ADS-B
04:37AM 51.4761 -0.8240 84° East 180 207 3,900 -480 Level FlightAware ADS-B
04:37AM 51.4763 -0.8173 87° East 179 206 3,800 -960 Descending FlightAware ADS-B
04:37AM 51.4766 -0.8067 87° East 179 206 3,700 -540 Descending FlightAware ADS-B
04:38AM 51.4763 -0.7855 91° East 179 206 3,600 -420 Descending FlightAware ADS-B
04:38AM 51.4762 -0.7642 90° East 178 205 3,500 -600 Descending FlightAware ADS-B
04:38AM 51.4763 -0.7443 90° East 179 206 3,300 -960 Descending FlightAware ADS-B
04:38AM 51.4764 -0.7310 89° East 180 207 3,100 -1,200 Descending FlightAware ADS-B
04:39AM 51.4765 -0.7108 90° East 179 206 2,800 -1,200 Descending FlightAware ADS-B
04:39AM 51.4766 -0.6902 90° East 170 196 2,500 -1,080 Descending FlightAware ADS-B
04:39AM 51.4767 -0.6731 89° East 160 184 2,300 -780 Descending FlightAware ADS-B
04:39AM 51.4768 -0.6544 90° East 157 181 2,100 -900 Descending FlightAware ADS-B
04:39AM 51.4769 -0.6414 89° East 159 183 1,900 -960 Descending FlightAware ADS-B
04:40AM 51.4770 -0.6236 89° East 161 185 1,700 -960 Descending FlightAware ADS-B
04:40AM 51.4771 -0.5868 89° East 152 175 1,200 -1,020 Descending FlightAware UK
04:41AM 51.4772 -0.5681 90° East 144 166 900 -720 Descending FlightAware UK
04:41AM 51.4770 -0.5630 90° East 140 161 900 -720 Level FlightAware (KMIA)
04:41AM 51.4774 -0.5313 90° East 140 161 500 -660 Descending FlightAware UK
04:42AM 51.4770 -0.5160 90° East 136 157 300 -480 Descending FlightAware
04:45AM 51.4775 -0.4614 90° East  Level Estimated
04:46AM 51.4775 -0.4614 90° East  Level Estimated
04:47AM 51.4775 -0.4614 90° East  Level Estimated